createdAt,value
2024-05-09T00:02:08.812Z,9.20
2024-05-09T00:06:14.400Z,9.20
2024-05-09T00:10:28.784Z,9.10
2024-05-09T00:14:40.462Z,9.10
2024-05-09T00:18:46.165Z,9.00
2024-05-09T00:22:51.879Z,8.90
2024-05-09T00:26:58.391Z,8.90
2024-05-09T00:31:03.930Z,8.90
2024-05-09T00:35:09.593Z,8.90
2024-05-09T00:39:15.161Z,8.80
2024-05-09T00:43:20.775Z,8.80
2024-05-09T00:47:26.758Z,8.70
2024-05-09T00:51:32.633Z,8.70
2024-05-09T00:55:39.691Z,8.60
2024-05-09T00:59:45.340Z,8.50
2024-05-09T01:03:51.496Z,8.50
2024-05-09T01:07:57.419Z,8.40
2024-05-09T01:12:03.247Z,8.40
2024-05-09T01:16:08.982Z,8.30
2024-05-09T01:20:20.189Z,8.30
2024-05-09T01:24:33.183Z,8.20
2024-05-09T01:28:38.786Z,8.20
2024-05-09T01:32:44.503Z,8.10
2024-05-09T01:36:50.117Z,8.10
2024-05-09T01:40:55.770Z,8.10
2024-05-09T01:45:01.466Z,8.00
2024-05-09T01:49:08.246Z,7.90
2024-05-09T01:53:15.431Z,7.90
2024-05-09T01:57:21.171Z,7.90
2024-05-09T02:01:26.966Z,7.80
2024-05-09T02:05:32.714Z,8.10
2024-05-09T02:09:38.329Z,8.30
2024-05-09T02:13:44.048Z,8.40
2024-05-09T02:17:49.744Z,8.40
2024-05-09T02:21:55.370Z,8.50
2024-05-09T02:26:00.976Z,8.40
2024-05-09T02:30:18.265Z,8.40
2024-05-09T02:34:28.605Z,8.40
2024-05-09T02:38:34.611Z,8.30
2024-05-09T02:42:40.177Z,8.30
2024-05-09T02:46:46.392Z,8.30
2024-05-09T02:50:52.222Z,8.30
2024-05-09T02:54:57.968Z,8.20
2024-05-09T02:59:03.656Z,8.20
2024-05-09T03:03:14.818Z,8.20
2024-05-09T03:07:21.360Z,8.20
2024-05-09T03:11:27.276Z,8.10
2024-05-09T03:15:33.184Z,8.10
2024-05-09T03:19:38.976Z,8.00
2024-05-09T03:23:45.015Z,8.00
2024-05-09T03:27:50.723Z,8.00
2024-05-09T03:31:56.490Z,7.90
2024-05-09T03:36:04.610Z,7.90
2024-05-09T03:40:17.727Z,7.90
2024-05-09T03:44:26.718Z,7.80
2024-05-09T03:48:36.155Z,7.80
2024-05-09T03:52:41.829Z,7.80
2024-05-09T03:56:47.415Z,7.80
2024-05-09T04:00:53.047Z,7.80
2024-05-09T04:04:58.722Z,7.80
2024-05-09T04:09:05.337Z,7.70
2024-05-09T04:13:11.445Z,7.70
2024-05-09T04:17:17.725Z,7.70
2024-05-09T04:21:23.332Z,7.70
2024-05-09T04:25:28.949Z,7.80
2024-05-09T04:29:37.513Z,7.80
2024-05-09T04:33:43.311Z,7.80
2024-05-09T04:37:50.166Z,7.90
2024-05-09T04:41:56.124Z,7.90
2024-05-09T04:46:01.994Z,8.00
2024-05-09T04:50:11.548Z,8.10
2024-05-09T04:58:29.161Z,8.20
2024-05-09T05:02:34.884Z,8.30
2024-05-09T05:06:40.482Z,8.50
2024-05-09T05:10:47.163Z,8.60
2024-05-09T05:14:53.475Z,8.80
2024-05-09T05:18:59.117Z,8.90
2024-05-09T05:23:08.466Z,9.00
2024-05-09T05:27:14.111Z,9.10
2024-05-09T05:31:19.694Z,9.30
2024-05-09T05:35:25.401Z,9.50
2024-05-09T05:39:31.143Z,9.70
2024-05-09T05:43:36.780Z,9.80
2024-05-09T05:47:42.590Z,10.00
2024-05-09T05:51:48.270Z,10.20
2024-05-09T05:55:53.961Z,10.40
2024-05-09T06:00:00.424Z,10.20
2024-05-09T06:04:06.091Z,10.20
2024-05-09T06:08:12.140Z,10.30
2024-05-09T06:12:18.022Z,10.40
2024-05-09T06:16:23.711Z,10.60
2024-05-09T06:20:35.764Z,10.80
2024-05-09T06:24:43.898Z,11.00
2024-05-09T06:28:49.527Z,11.20
2024-05-09T06:32:55.303Z,11.40
2024-05-09T06:37:01.038Z,11.70
2024-05-09T06:41:07.002Z,11.90
2024-05-09T06:45:13.811Z,12.20
2024-05-09T06:49:19.619Z,12.40
2024-05-09T06:53:25.508Z,12.60
2024-05-09T06:57:31.188Z,12.80
2024-05-09T07:01:36.697Z,13.10
2024-05-09T07:05:42.372Z,13.30
2024-05-09T07:09:47.976Z,13.50
2024-05-09T07:13:53.778Z,13.70
2024-05-09T07:17:59.355Z,13.90
2024-05-09T07:22:04.951Z,14.10
2024-05-09T07:26:10.410Z,14.30
2024-05-09T07:30:26.937Z,14.40
2024-05-09T07:34:36.452Z,14.70
2024-05-09T07:38:42.099Z,14.90
2024-05-09T07:42:47.810Z,15.20
2024-05-09T07:48:13.671Z,15.40
2024-05-09T07:55:27.745Z,15.70
2024-05-09T07:59:37.026Z,16.00
2024-05-09T08:03:43.355Z,16.10
2024-05-09T08:07:49.298Z,16.30
2024-05-09T08:11:54.865Z,16.40
2024-05-09T08:16:00.742Z,16.60
2024-05-09T08:20:07.637Z,16.70
2024-05-09T08:24:14.319Z,16.90
2024-05-09T08:28:20.043Z,17.00
2024-05-09T08:32:27.483Z,17.20
2024-05-09T08:36:33.934Z,17.30
2024-05-09T08:40:39.726Z,17.40
2024-05-09T08:44:45.643Z,17.70
2024-05-09T08:48:52.713Z,17.90
2024-05-09T08:52:58.919Z,18.10
2024-05-09T08:57:05.193Z,18.20
2024-05-09T09:01:10.721Z,18.40
2024-05-09T09:05:21.407Z,18.60
2024-05-09T09:09:28.156Z,18.80
2024-05-09T09:13:33.790Z,19.00
2024-05-09T09:17:39.607Z,19.20
2024-05-09T09:21:45.812Z,19.40
2024-05-09T09:25:52.012Z,19.50
2024-05-09T09:29:57.814Z,19.70
2024-05-09T09:34:09.237Z,19.80
2024-05-09T09:38:19.067Z,20.00
2024-05-09T09:42:34.410Z,20.10
2024-05-09T09:46:42.051Z,20.00
2024-05-09T09:50:49.305Z,19.90
2024-05-09T09:54:56.509Z,20.00
2024-05-09T09:59:05.323Z,20.10
2024-05-09T10:03:10.956Z,20.30
2024-05-09T10:07:18.947Z,20.40
2024-05-09T10:11:25.126Z,20.50
2024-05-09T10:15:31.963Z,20.70
2024-05-09T10:19:37.565Z,20.80
2024-05-09T10:23:56.845Z,20.90
2024-05-09T10:28:03.243Z,21.00
2024-05-09T10:32:09.566Z,21.20
2024-05-09T10:36:27.067Z,21.30
2024-05-09T10:40:32.744Z,21.40
2024-05-09T10:44:38.933Z,21.40
2024-05-09T10:48:45.647Z,21.50
2024-05-09T10:52:53.796Z,21.60
2024-05-09T10:56:59.437Z,21.70
2024-05-09T11:01:07.298Z,21.80
2024-05-09T11:05:13.608Z,21.90
2024-05-09T11:09:19.373Z,22.00
2024-05-09T11:13:32.390Z,22.10
2024-05-09T11:17:38.563Z,22.20
2024-05-09T11:21:44.276Z,22.40
2024-05-09T11:25:58.176Z,22.60
2024-05-09T11:30:04.419Z,22.70
2024-05-09T11:34:11.242Z,22.70
2024-05-09T11:38:16.874Z,22.70
2024-05-09T11:42:22.587Z,22.70
2024-05-09T11:46:29.308Z,22.80
2024-05-09T11:50:36.116Z,22.90
2024-05-09T11:54:42.055Z,23.00
2024-05-09T11:58:47.754Z,23.20
2024-05-09T12:02:54.334Z,23.20
2024-05-09T12:07:00.125Z,23.20
2024-05-09T12:11:06.127Z,23.30
2024-05-09T12:15:12.701Z,23.40
2024-05-09T12:19:18.426Z,23.30
2024-05-09T12:23:24.116Z,23.40
2024-05-09T12:27:29.762Z,23.60
2024-05-09T12:31:35.469Z,23.60
2024-05-09T12:35:44.362Z,23.60
2024-05-09T12:39:52.322Z,23.60
2024-05-09T12:43:57.903Z,23.80
2024-05-09T12:48:06.928Z,24.00
2024-05-09T12:52:12.996Z,24.10
2024-05-09T12:56:18.693Z,24.30
2024-05-09T13:00:31.402Z,24.50
2024-05-09T13:04:39.598Z,24.50
2024-05-09T13:08:45.474Z,24.60
2024-05-09T13:12:51.112Z,24.60
2024-05-09T13:16:56.764Z,24.70
2024-05-09T13:21:02.662Z,24.80
2024-05-09T13:25:08.520Z,24.90
2024-05-09T13:29:14.198Z,25.10
2024-05-09T13:33:20.042Z,25.00
2024-05-09T13:37:25.910Z,24.90
2024-05-09T13:41:31.492Z,24.90
2024-05-09T13:45:37.188Z,25.00
2024-05-09T13:49:43.070Z,25.20
2024-05-09T13:53:48.691Z,25.30
2024-05-09T13:57:54.500Z,25.40
2024-05-09T14:02:00.147Z,25.40
2024-05-09T14:06:07.588Z,25.50
2024-05-09T14:10:22.658Z,25.60
2024-05-09T14:14:32.025Z,25.50
2024-05-09T14:18:37.916Z,25.50
2024-05-09T14:22:43.524Z,25.60
2024-05-09T14:26:49.264Z,25.50
2024-05-09T14:30:56.789Z,25.50
2024-05-09T14:35:02.704Z,25.50
2024-05-09T14:39:08.374Z,25.60
2024-05-09T14:43:15.881Z,25.40
2024-05-09T14:47:22.108Z,25.20
2024-05-09T14:51:27.770Z,25.20
2024-05-09T14:55:35.724Z,25.30
2024-05-09T14:59:41.762Z,25.00
2024-05-09T15:03:47.475Z,24.70
2024-05-09T15:07:53.161Z,24.50
2024-05-09T15:11:58.779Z,24.40
2024-05-09T15:16:04.665Z,24.30
2024-05-09T15:20:16.773Z,24.20
2024-05-09T15:24:23.097Z,24.30
2024-05-09T15:28:28.950Z,24.40
2024-05-09T15:32:35.037Z,24.40
2024-05-09T15:36:43.067Z,24.40
2024-05-09T15:40:49.064Z,24.30
2024-05-09T15:44:54.760Z,24.20
2024-05-09T15:49:00.689Z,24.00
2024-05-09T15:53:07.580Z,23.90
2024-05-09T15:57:13.872Z,23.90
2024-05-09T16:01:19.512Z,23.90
2024-05-09T16:05:25.352Z,23.80
2024-05-09T16:09:31.427Z,23.60
2024-05-09T16:13:37.279Z,23.60
2024-05-09T16:17:42.992Z,23.70
2024-05-09T16:21:48.594Z,23.70
2024-05-09T16:25:54.468Z,23.70
2024-05-09T16:30:04.143Z,23.70
2024-05-09T16:34:12.678Z,23.70
2024-05-09T16:38:19.225Z,23.60
2024-05-09T16:42:24.775Z,23.70
2024-05-09T16:46:31.921Z,23.70
2024-05-09T16:50:38.067Z,23.80
2024-05-09T16:54:43.718Z,23.60
2024-05-09T16:58:49.659Z,23.60
2024-05-09T17:02:55.236Z,23.50
2024-05-09T17:07:00.968Z,23.40
2024-05-09T17:11:06.721Z,23.20
2024-05-09T17:15:12.682Z,23.10
2024-05-09T17:19:18.556Z,23.00
2024-05-09T17:23:24.279Z,22.90
2024-05-09T17:27:29.929Z,22.80
2024-05-09T17:31:35.628Z,22.70
2024-05-09T17:35:41.769Z,22.70
2024-05-09T17:39:47.554Z,22.60
2024-05-09T17:43:53.247Z,22.60
2024-05-09T17:47:59.193Z,22.50
2024-05-09T17:52:05.530Z,22.20
2024-05-09T17:56:11.270Z,22.00
2024-05-09T18:00:24.743Z,21.90
2024-05-09T18:04:39.678Z,21.70
2024-05-09T18:08:45.343Z,21.60
2024-05-09T18:12:51.029Z,21.50
2024-05-09T18:16:56.936Z,21.30
2024-05-09T18:21:02.534Z,21.20
2024-05-09T18:25:08.331Z,21.10
2024-05-09T18:29:14.065Z,20.90
2024-05-09T18:33:20.472Z,20.80
2024-05-09T18:37:26.785Z,20.60
2024-05-09T18:41:32.433Z,20.50
2024-05-09T18:45:39.015Z,20.40
2024-05-09T18:49:45.027Z,20.30
2024-05-09T18:53:52.419Z,20.20
2024-05-09T18:57:58.074Z,20.10
2024-05-09T19:02:03.997Z,19.90
2024-05-09T19:06:09.794Z,19.80
2024-05-09T19:10:22.488Z,19.70
2024-05-09T19:14:31.572Z,19.50
2024-05-09T19:18:37.987Z,19.40
2024-05-09T19:22:43.857Z,19.30
2024-05-09T19:26:49.528Z,19.20
2024-05-09T19:30:54.991Z,19.10
2024-05-09T19:35:00.791Z,19.00
2024-05-09T19:39:06.924Z,19.30
2024-05-09T19:43:12.622Z,19.00
2024-05-09T19:47:18.344Z,18.80
2024-05-09T19:51:24.063Z,18.60
2024-05-09T19:55:29.628Z,18.50
2024-05-09T19:59:35.215Z,18.40
2024-05-09T20:03:40.954Z,18.30
2024-05-09T20:07:46.629Z,18.20
2024-05-09T20:11:52.279Z,18.10
2024-05-09T20:15:57.933Z,18.00
2024-05-09T20:20:05.896Z,17.90
2024-05-09T20:24:12.943Z,17.80
2024-05-09T20:28:18.579Z,17.70
2024-05-09T20:32:24.237Z,17.70
2024-05-09T20:36:29.971Z,17.60
2024-05-09T20:40:38.499Z,17.60
2024-05-09T20:44:45.642Z,17.50
2024-05-09T20:48:51.491Z,17.40
2024-05-09T20:52:57.214Z,17.40
2024-05-09T20:57:03.056Z,17.30
2024-05-09T21:01:08.801Z,17.20
2024-05-09T21:05:14.726Z,17.20
2024-05-09T21:09:20.404Z,17.10
2024-05-09T21:13:26.224Z,17.10
2024-05-09T21:17:31.845Z,17.00
2024-05-09T21:21:43.634Z,17.00
2024-05-09T21:25:49.316Z,16.90
2024-05-09T21:29:54.912Z,16.90
2024-05-09T21:34:01.513Z,16.90
2024-05-09T21:38:07.698Z,16.80
2024-05-09T21:42:13.507Z,16.80
2024-05-09T21:46:19.611Z,16.70
2024-05-09T21:50:32.371Z,16.60
2024-05-09T21:54:44.796Z,16.60
2024-05-09T21:58:50.375Z,16.60
2024-05-09T22:02:56.080Z,16.50
2024-05-09T22:07:01.882Z,16.40
2024-05-09T22:11:07.578Z,16.80
2024-05-09T22:15:13.366Z,17.10
2024-05-09T22:19:19.087Z,17.10
2024-05-09T22:23:24.727Z,17.10
2024-05-09T22:27:30.289Z,17.10
2024-05-09T22:31:35.894Z,16.70
2024-05-09T22:35:41.476Z,16.40
2024-05-09T22:39:46.929Z,16.20
2024-05-09T22:43:52.365Z,16.10
2024-05-09T22:47:58.054Z,16.00
2024-05-09T22:52:03.698Z,16.00
2024-05-09T22:56:09.126Z,15.80
2024-05-09T23:00:16.098Z,15.80
2024-05-09T23:04:21.998Z,15.70
2024-05-09T23:08:27.590Z,15.70
2024-05-09T23:12:33.211Z,16.10
2024-05-09T23:16:38.811Z,15.90
2024-05-09T23:20:44.472Z,15.70
2024-05-09T23:24:49.881Z,15.60
2024-05-09T23:28:55.496Z,15.60
2024-05-09T23:33:01.303Z,15.50
2024-05-09T23:37:07.173Z,15.40
2024-05-09T23:41:12.812Z,15.50
2024-05-09T23:45:18.368Z,15.50
2024-05-09T23:49:23.965Z,15.40
2024-05-09T23:53:29.577Z,15.40
2024-05-09T23:57:35.198Z,15.40
